Time;durP1;ratioP1;P1;durP2;ratioP2;P2;SDS_P1;SDS_P2;PMS_P1;PMS_P2;Temp;Humidity;BMP_temperature;BMP_pressure;BME280_temperature;BME280_humidity;BME280_pressure;Samples;Min_cycle;Max_cycle;Signal;HPM_P1;HPM_P2
2022/04/22 00:00:56;;;;;;;6.83;6.13;;;7.60;99.90;;;;;;5048591;28;20447;-69
2022/04/22 00:03:45;;;;;;;7.03;5.70;;;7.60;99.90;;;;;;5059635;28;20469;-69
2022/04/22 00:06:34;;;;;;;7.70;5.90;;;7.60;99.90;;;;;;5049220;28;21012;-69
2022/04/22 00:09:24;;;;;;;7.00;5.97;;;7.60;99.90;;;;;;5047321;28;20475;-69
2022/04/22 00:12:12;;;;;;;6.33;5.70;;;7.50;99.90;;;;;;5048040;28;20470;-71
2022/04/22 00:15:00;;;;;;;9.70;5.80;;;7.50;99.90;;;;;;5055611;28;21119;-69
2022/04/22 00:17:49;;;;;;;7.07;5.27;;;7.50;99.90;;;;;;5048056;28;20600;-70
2022/04/22 00:20:38;;;;;;;8.00;6.03;;;7.60;99.90;;;;;;5052754;28;20802;-69
2022/04/22 00:23:27;;;;;;;6.60;4.90;;;7.50;99.90;;;;;;5047148;28;20572;-70
2022/04/22 00:26:15;;;;;;;7.57;4.73;;;7.50;99.90;;;;;;5048002;28;20458;-69
2022/04/22 00:29:04;;;;;;;8.50;5.07;;;7.50;99.90;;;;;;5047648;28;20849;-69
2022/04/22 00:31:52;;;;;;;7.50;5.43;;;7.50;99.90;;;;;;5048588;28;21055;-69
2022/04/22 00:34:41;;;;;;;6.27;5.43;;;7.50;99.90;;;;;;5046261;28;21009;-69
2022/04/22 00:37:30;;;;;;;7.50;5.20;;;7.50;99.90;;;;;;5046467;28;20619;-69
2022/04/22 00:40:21;;;;;;;12.63;5.67;;;7.50;99.90;;;;;;5047428;28;20940;-69
2022/04/22 00:43:17;;;;;;;6.03;4.97;;;7.40;99.90;;;;;;5045923;28;20877;-69
2022/04/22 00:46:05;;;;;;;8.27;5.57;;;7.40;99.90;;;;;;5049561;28;20481;-69
2022/04/22 00:48:54;;;;;;;7.63;5.07;;;7.40;99.90;;;;;;5044577;28;20511;-71
2022/04/22 00:51:42;;;;;;;6.57;5.03;;;7.40;99.90;;;;;;5049468;28;21105;-70
2022/04/22 00:54:32;;;;;;;5.80;5.00;;;7.40;99.90;;;;;;5041382;28;20572;-70
2022/04/22 00:57:23;;;;;;;8.20;5.83;;;7.40;99.90;;;;;;5050144;28;20496;-69
2022/04/22 01:00:12;;;;;;;7.30;5.10;;;7.40;99.90;;;;;;5048318;28;21945;-69
2022/04/22 01:03:00;;;;;;;5.80;5.20;;;7.30;99.90;;;;;;5046815;28;20646;-69
2022/04/22 01:12:08;;;;;;;6.30;5.67;;;7.30;99.90;;;;;;5048149;28;20443;-69
2022/04/22 01:14:59;;;;;;;6.83;5.87;;;7.20;99.90;;;;;;5052678;28;20478;-69
2022/04/22 01:17:48;;;;;;;7.17;6.37;;;7.20;99.90;;;;;;5045579;28;20554;-69
2022/04/22 01:20:36;;;;;;;5.97;5.40;;;7.20;99.90;;;;;;5045966;28;20486;-69
2022/04/22 01:23:25;;;;;;;8.00;6.20;;;7.20;99.90;;;;;;5042240;28;20478;-69
2022/04/22 01:26:15;;;;;;;7.77;6.47;;;7.20;99.90;;;;;;5043359;28;20499;-69
2022/04/22 01:29:04;;;;;;;7.10;5.77;;;7.20;99.90;;;;;;5044713;28;20544;-69
2022/04/22 01:31:52;;;;;;;6.80;6.10;;;7.20;99.90;;;;;;5046725;28;20881;-70
2022/04/22 01:34:42;;;;;;;7.33;5.33;;;7.20;99.90;;;;;;5047663;28;20479;-69
2022/04/22 01:37:32;;;;;;;6.33;5.40;;;7.20;99.90;;;;;;5046677;28;20822;-69
2022/04/22 01:40:21;;;;;;;8.30;6.07;;;7.20;99.90;;;;;;5034982;28;20475;-70
2022/04/22 01:43:09;;;;;;;6.40;5.80;;;7.20;99.90;;;;;;5043268;28;20478;-69
2022/04/22 01:45:58;;;;;;;7.00;5.80;;;7.20;99.90;;;;;;5048685;28;20518;-69
2022/04/22 01:48:46;;;;;;;7.37;5.90;;;7.10;99.90;;;;;;5044766;28;20462;-69
2022/04/22 01:51:34;;;;;;;7.83;6.07;;;7.10;99.90;;;;;;5049747;28;20557;-70
2022/04/22 01:54:23;;;;;;;6.73;6.00;;;7.10;99.90;;;;;;5040988;28;20568;-69
2022/04/22 01:57:12;;;;;;;8.10;5.37;;;7.10;99.90;;;;;;5044913;28;20473;-70
2022/04/22 02:00:02;;;;;;;7.93;6.27;;;7.10;99.90;;;;;;5047317;28;20475;-70
2022/04/22 02:02:50;;;;;;;7.60;5.83;;;7.10;99.90;;;;;;5047303;28;20478;-70
2022/04/22 02:05:38;;;;;;;5.50;4.90;;;7.10;99.90;;;;;;5049994;28;20450;-69
2022/04/22 02:08:26;;;;;;;7.30;6.23;;;7.10;99.90;;;;;;5043832;28;20480;-70
2022/04/22 02:11:15;;;;;;;11.33;5.57;;;7.10;99.90;;;;;;5047908;28;20565;-69
2022/04/22 02:14:04;;;;;;;6.90;4.80;;;7.10;99.90;;;;;;5045628;28;21200;-69
2022/04/22 02:16:53;;;;;;;6.30;5.63;;;7.10;99.90;;;;;;5052137;28;20998;-69
2022/04/22 02:19:41;;;;;;;7.00;4.67;;;7.00;99.90;;;;;;5062638;28;20885;-70
2022/04/22 02:22:29;;;;;;;9.40;6.17;;;7.00;99.90;;;;;;5047378;28;22593;-69
2022/04/22 02:25:17;;;;;;;7.40;5.70;;;7.00;99.90;;;;;;5043334;28;20588;-69
2022/04/22 02:31:13;;;;;;;8.07;5.87;;;7.00;99.90;;;;;;5050258;28;20470;-69
2022/04/22 02:34:01;;;;;;;6.33;5.33;;;7.00;99.90;;;;;;5052187;28;20482;-69
2022/04/22 02:36:49;;;;;;;5.33;4.83;;;7.00;99.90;;;;;;5050602;28;20478;-69
2022/04/22 02:39:38;;;;;;;7.03;5.20;;;7.00;99.90;;;;;;5051730;28;20898;-70
2022/04/22 02:45:32;;;;;;;7.60;5.67;;;7.00;99.90;;;;;;5046502;28;20552;-69
2022/04/22 02:48:22;;;;;;;7.37;4.93;;;7.00;99.90;;;;;;5051441;28;20529;-69
2022/04/22 02:51:11;;;;;;;6.97;5.23;;;7.00;99.90;;;;;;5046721;28;20499;-69
2022/04/22 02:53:59;;;;;;;5.93;5.30;;;7.00;99.90;;;;;;5038327;28;20561;-69
2022/04/22 02:56:47;;;;;;;7.90;5.10;;;6.90;99.90;;;;;;5051442;28;20558;-70
2022/04/22 02:59:37;;;;;;;6.00;5.40;;;6.90;99.90;;;;;;5052224;28;20470;-70
2022/04/22 03:02:25;;;;;;;7.40;3.90;;;7.00;99.90;;;;;;5050511;28;20482;-69
2022/04/22 03:05:14;;;;;;;5.83;4.43;;;6.90;99.90;;;;;;5049657;28;20522;-69
2022/04/22 03:08:03;;;;;;;4.80;4.30;;;6.90;99.90;;;;;;5048289;28;21495;-69
2022/04/22 03:10:51;;;;;;;6.03;4.90;;;6.90;99.90;;;;;;5048614;28;20477;-69
2022/04/22 03:13:40;;;;;;;8.13;4.80;;;6.90;99.90;;;;;;5043780;28;20540;-69
2022/04/22 03:16:28;;;;;;;6.70;4.57;;;6.90;99.90;;;;;;5053285;28;20492;-70
2022/04/22 03:19:16;;;;;;;8.67;4.87;;;6.80;99.90;;;;;;5046051;28;20477;-69
2022/04/22 03:22:06;;;;;;;4.93;4.30;;;6.80;99.90;;;;;;5052645;28;20576;-69
2022/04/22 03:24:54;;;;;;;7.40;4.83;;;6.80;99.90;;;;;;5043344;28;21051;-69
2022/04/22 03:27:42;;;;;;;7.63;4.83;;;6.80;99.90;;;;;;5046580;28;20638;-69
2022/04/22 03:30:34;;;;;;;5.00;4.50;;;6.80;99.90;;;;;;5052051;28;20580;-69
2022/04/22 03:33:22;;;;;;;6.50;4.20;;;6.80;99.90;;;;;;5052698;28;20482;-69
2022/04/22 03:36:10;;;;;;;6.00;4.50;;;6.80;99.90;;;;;;5048645;28;20638;-69
2022/04/22 03:39:00;;;;;;;5.90;4.10;;;6.80;99.90;;;;;;5042719;28;20529;-69
2022/04/22 03:41:48;;;;;;;6.60;4.70;;;6.80;99.90;;;;;;5054480;28;20441;-69
2022/04/22 03:44:37;;;;;;;6.13;4.00;;;6.70;99.90;;;;;;5043988;28;21057;-69
2022/04/22 03:47:26;;;;;;;5.67;4.77;;;6.70;99.90;;;;;;5054001;28;20455;-69
2022/04/22 03:50:14;;;;;;;4.83;4.03;;;6.70;99.90;;;;;;5054939;28;20564;-69
2022/04/22 03:53:02;;;;;;;5.70;4.27;;;6.70;99.90;;;;;;5047371;28;20469;-70
2022/04/22 03:55:51;;;;;;;8.63;4.80;;;6.70;99.90;;;;;;5044976;28;20555;-69
2022/04/22 03:58:39;;;;;;;6.30;4.53;;;6.70;99.90;;;;;;5051843;28;20534;-70
2022/04/22 04:01:27;;;;;;;6.90;4.97;;;6.70;99.90;;;;;;5047472;28;20499;-69
2022/04/22 04:04:15;;;;;;;8.10;5.97;;;6.60;99.90;;;;;;5046379;28;20481;-69
2022/04/22 04:07:03;;;;;;;6.57;4.57;;;6.70;99.90;;;;;;5050124;28;20461;-69
2022/04/22 04:16:05;;;;;;;9.37;5.90;;;6.70;99.90;;;;;;5054590;28;20535;-69
2022/04/22 04:23:14;;;;;;;10.60;5.33;;;6.70;99.90;;;;;;5054320;28;20485;-69
2022/04/22 04:25:08;;;;;;;7.70;5.40;;;6.60;99.90;;;;;;5051563;28;20908;-70
2022/04/22 04:27:57;;;;;;;7.60;5.30;;;6.60;99.90;;;;;;5049956;28;20526;-69
2022/04/22 04:30:47;;;;;;;9.53;5.80;;;6.60;99.90;;;;;;5051827;28;20497;-69
2022/04/22 04:33:37;;;;;;;9.23;6.07;;;6.60;99.90;;;;;;5049805;28;20623;-69
2022/04/22 04:36:25;;;;;;;7.30;6.10;;;6.60;99.90;;;;;;5060411;28;20465;-69
2022/04/22 04:39:13;;;;;;;8.80;5.90;;;6.60;99.90;;;;;;5054547;28;20703;-69
2022/04/22 04:42:02;;;;;;;7.43;6.03;;;6.60;99.90;;;;;;5050409;28;20465;-69
2022/04/22 04:44:50;;;;;;;7.13;5.27;;;6.70;99.90;;;;;;5045119;28;20478;-69
2022/04/22 04:47:41;;;;;;;7.10;6.40;;;6.70;99.90;;;;;;5050493;28;20540;-69
2022/04/22 04:50:30;;;;;;;10.10;6.33;;;6.70;99.90;;;;;;5048725;28;20712;-70
2022/04/22 04:53:19;;;;;;;9.43;6.70;;;6.70;99.90;;;;;;5038756;28;20470;-69
2022/04/22 04:56:10;;;;;;;8.33;5.90;;;6.80;99.90;;;;;;5044066;28;20462;-69
2022/04/22 04:58:58;;;;;;;7.03;6.33;;;6.80;99.90;;;;;;5039731;28;20511;-69
2022/04/22 05:01:46;;;;;;;6.33;5.80;;;6.80;99.90;;;;;;5035666;28;20525;-69
2022/04/22 05:04:36;;;;;;;8.87;6.60;;;6.90;99.90;;;;;;5035976;28;20581;-69
2022/04/22 05:07:24;;;;;;;8.07;7.10;;;6.90;99.90;;;;;;5035909;28;20484;-69
2022/04/22 05:10:12;;;;;;;7.27;6.57;;;6.90;99.90;;;;;;5047467;28;20482;-69
2022/04/22 05:13:01;;;;;;;7.00;5.80;;;7.00;99.90;;;;;;5049256;28;20579;-69
2022/04/22 05:15:52;;;;;;;10.00;6.33;;;7.00;99.90;;;;;;5045928;28;20469;-68
2022/04/22 05:18:40;;;;;;;8.10;6.20;;;7.10;99.90;;;;;;5048667;28;21279;-69
2022/04/22 05:21:30;;;;;;;9.23;5.97;;;7.10;99.90;;;;;;5049249;28;20467;-69
2022/04/22 05:24:18;;;;;;;8.03;5.97;;;7.10;99.90;;;;;;5048502;28;20482;-69
2022/04/22 05:27:06;;;;;;;7.50;6.03;;;7.20;99.90;;;;;;5047830;28;20618;-69
2022/04/22 05:33:03;;;;;;;7.50;5.70;;;7.20;99.90;;;;;;5038749;28;20504;-70
2022/04/22 05:35:51;;;;;;;7.60;5.10;;;7.30;99.90;;;;;;5032555;28;20482;-69
2022/04/22 05:38:41;;;;;;;7.10;5.07;;;7.30;99.90;;;;;;5042057;28;20482;-69
2022/04/22 05:41:29;;;;;;;8.17;5.37;;;7.40;99.90;;;;;;5042843;28;20679;-68
2022/04/22 05:44:17;;;;;;;8.03;5.77;;;7.40;99.90;;;;;;5029656;28;20622;-69
2022/04/22 05:47:07;;;;;;;5.90;5.30;;;7.50;99.90;;;;;;5037154;28;20810;-71
2022/04/22 05:49:55;;;;;;;9.37;6.33;;;7.50;99.90;;;;;;5046130;28;20470;-69
2022/04/22 05:52:43;;;;;;;8.30;5.40;;;7.60;99.90;;;;;;5047319;28;21067;-69
2022/04/22 05:55:33;;;;;;;7.60;5.03;;;7.70;99.90;;;;;;5035155;28;20966;-70
2022/04/22 05:58:21;;;;;;;8.30;5.30;;;7.70;99.90;;;;;;5046099;28;20847;-69
2022/04/22 06:01:09;;;;;;;7.97;5.57;;;7.80;99.90;;;;;;5037700;28;20824;-70
2022/04/22 06:03:58;;;;;;;6.73;5.53;;;7.80;99.90;;;;;;5043934;28;21033;-70
2022/04/22 06:06:46;;;;;;;5.93;4.80;;;7.80;99.90;;;;;;5037940;28;20446;-69
2022/04/22 06:12:42;;;;;;;6.80;5.10;;;7.90;99.90;;;;;;5045926;28;21042;-70
2022/04/22 06:15:31;;;;;;;5.60;4.67;;;8.00;99.90;;;;;;5043814;28;20962;-69
2022/04/22 06:18:19;;;;;;;7.83;4.70;;;8.00;99.90;;;;;;5042379;28;21124;-69
2022/04/22 06:21:08;;;;;;;6.40;4.60;;;8.10;99.90;;;;;;5041548;28;20466;-69
2022/04/22 06:23:56;;;;;;;7.07;4.87;;;8.10;99.90;;;;;;5044699;28;20480;-70
2022/04/22 06:26:44;;;;;;;5.83;4.80;;;8.20;99.90;;;;;;5042515;28;20468;-69
2022/04/22 06:29:34;;;;;;;4.73;4.13;;;8.20;99.90;;;;;;5037085;28;20466;-70
2022/04/22 06:32:24;;;;;;;8.47;5.00;;;8.30;99.90;;;;;;5041125;28;21036;-70
2022/04/22 06:35:14;;;;;;;6.27;4.40;;;8.30;99.90;;;;;;5037194;28;20450;-70
2022/04/22 06:38:03;;;;;;;5.00;3.90;;;8.40;99.90;;;;;;5038028;28;20620;-70
2022/04/22 06:47:06;;;;;;;6.13;3.83;;;8.60;99.90;;;;;;5040515;28;20987;-70
2022/04/22 06:49:55;;;;;;;8.03;4.33;;;8.70;99.90;;;;;;5047430;28;20474;-70
2022/04/22 06:52:43;;;;;;;4.70;3.80;;;8.70;99.90;;;;;;5038698;28;21438;-70
2022/04/22 06:55:32;;;;;;;4.70;4.20;;;8.80;99.90;;;;;;5040883;28;21252;-69
2022/04/22 06:58:23;;;;;;;7.77;4.60;;;8.90;99.90;;;;;;5039872;28;20563;-69
2022/04/22 07:01:11;;;;;;;6.90;4.80;;;9.00;99.90;;;;;;5041997;28;21067;-70
2022/04/22 07:04:22;;;;;;;5.57;4.03;;;9.00;99.90;;;;;;5038818;28;20482;-70
2022/04/22 07:07:11;;;;;;;5.90;4.30;;;9.10;99.90;;;;;;5032595;28;20513;-70
2022/04/22 07:10:00;;;;;;;7.10;4.30;;;9.20;99.90;;;;;;5039573;28;20560;-69
2022/04/22 07:12:49;;;;;;;4.93;3.90;;;9.20;99.90;;;;;;5043719;28;20565;-69
2022/04/22 07:15:37;;;;;;;4.37;3.67;;;9.20;99.90;;;;;;5044264;28;20454;-70
2022/04/22 07:18:26;;;;;;;6.27;4.10;;;9.30;99.90;;;;;;5040215;28;20469;-69
2022/04/22 07:21:17;;;;;;;6.90;4.10;;;9.40;99.90;;;;;;5035466;28;20492;-71
2022/04/22 07:24:06;;;;;;;4.30;3.30;;;9.50;99.90;;;;;;5036500;28;20560;-71
2022/04/22 07:26:57;;;;;;;5.77;3.80;;;9.60;99.90;;;;;;5041712;28;20453;-70
2022/04/22 07:29:46;;;;;;;7.03;4.03;;;9.60;99.90;;;;;;5048318;28;20467;-70
2022/04/22 07:32:37;;;;;;;5.33;4.00;;;9.60;99.90;;;;;;5045392;28;21309;-69
2022/04/22 07:35:26;;;;;;;6.07;4.30;;;9.70;99.90;;;;;;5042667;28;20531;-70
2022/04/22 07:38:18;;;;;;;7.47;3.80;;;9.80;99.90;;;;;;5046745;28;20469;-70
2022/04/22 07:41:08;;;;;;;6.00;4.47;;;9.80;99.90;;;;;;5037688;28;20476;-70
2022/04/22 07:47:08;;;;;;;10.40;4.23;;;10.00;99.90;;;;;;5048808;28;21000;-70
2022/04/22 07:49:57;;;;;;;4.20;3.80;;;10.10;99.90;;;;;;5040712;28;20549;-70
2022/04/22 07:52:46;;;;;;;6.50;3.70;;;10.30;99.90;;;;;;5047869;28;20470;-70
2022/04/22 07:55:36;;;;;;;5.47;4.20;;;10.40;99.90;;;;;;5038183;28;20451;-70
2022/04/22 07:58:24;;;;;;;5.67;4.10;;;10.50;99.90;;;;;;5043879;28;20495;-70
2022/04/22 08:01:12;;;;;;;8.20;3.87;;;10.60;99.90;;;;;;5038229;28;20457;-70
2022/04/22 08:04:01;;;;;;;4.67;4.10;;;10.70;99.90;;;;;;5042354;28;20485;-70
2022/04/22 08:06:50;;;;;;;7.27;4.17;;;10.70;99.90;;;;;;5037036;28;21039;-69
2022/04/22 08:09:58;;;;;;;4.47;3.80;;;10.80;99.90;;;;;;5050428;28;20493;-70
2022/04/22 08:12:48;;;;;;;4.30;3.70;;;10.90;99.90;;;;;;5041055;28;20485;-70
2022/04/22 08:15:36;;;;;;;6.77;4.33;;;10.90;99.90;;;;;;5040779;28;20459;-70
2022/04/22 08:18:25;;;;;;;6.03;5.30;;;11.00;99.90;;;;;;5041826;28;20508;-70
2022/04/22 08:21:14;;;;;;;6.90;3.97;;;11.20;99.90;;;;;;5043475;28;20454;-70
2022/04/22 08:24:02;;;;;;;6.53;4.30;;;11.20;99.90;;;;;;5040440;28;20561;-70
2022/04/22 08:26:51;;;;;;;7.47;4.37;;;11.30;99.90;;;;;;5039651;28;21399;-70
2022/04/22 08:29:44;;;;;;;6.60;4.43;;;11.40;99.90;;;;;;5044574;28;21063;-70
2022/04/22 08:32:32;;;;;;;5.93;4.37;;;11.50;99.90;;;;;;5038185;28;20487;-70
2022/04/22 08:35:21;;;;;;;6.57;4.47;;;11.60;99.90;;;;;;5040540;28;20502;-70
2022/04/22 08:38:09;;;;;;;5.57;4.10;;;11.60;99.90;;;;;;5046267;28;20442;-70
2022/04/22 08:40:58;;;;;;;6.90;3.97;;;11.70;99.90;;;;;;5052319;28;20488;-70
2022/04/22 08:43:47;;;;;;;4.30;3.90;;;11.80;99.90;;;;;;5033581;28;20505;-70
2022/04/22 08:50:02;;;;;;;8.17;4.70;;;12.00;99.90;;;;;;5047223;28;20470;-70
2022/04/22 08:52:55;;;;;;;5.50;4.83;;;12.00;99.90;;;;;;5044833;28;20473;-70
2022/04/22 08:55:44;;;;;;;9.93;5.50;;;12.10;99.90;;;;;;5038431;28;20465;-70
2022/04/22 08:58:36;;;;;;;5.50;4.30;;;12.20;99.90;;;;;;5039485;28;21216;-70
2022/04/22 09:01:24;;;;;;;5.73;4.20;;;12.20;99.90;;;;;;5044694;28;20933;-70
2022/04/22 09:04:13;;;;;;;5.80;4.70;;;12.30;99.90;;;;;;5044389;28;20492;-70
2022/04/22 09:07:03;;;;;;;6.30;4.63;;;12.30;99.90;;;;;;5047864;28;20481;-70
2022/04/22 09:09:51;;;;;;;5.50;4.87;;;12.40;99.90;;;;;;5045352;28;20487;-70
2022/04/22 09:12:43;;;;;;;6.70;4.60;;;12.50;99.90;;;;;;5051733;28;20508;-70
2022/04/22 09:15:34;;;;;;;5.50;4.40;;;12.60;99.90;;;;;;5042056;28;21324;-70
2022/04/22 09:18:43;;;;;;;5.80;4.40;;;12.60;99.90;;;;;;5042488;28;20816;-69
2022/04/22 09:21:32;;;;;;;7.20;6.40;;;12.60;99.90;;;;;;5036401;28;20447;-70
2022/04/22 09:24:20;;;;;;;6.27;5.30;;;12.80;99.90;;;;;;5043300;28;20482;-70
2022/04/22 09:27:09;;;;;;;8.77;5.93;;;12.80;99.90;;;;;;5045783;28;20447;-70
2022/04/22 09:29:57;;;;;;;8.50;6.00;;;12.90;99.90;;;;;;5038224;28;20462;-70
2022/04/22 09:32:45;;;;;;;8.63;4.80;;;13.00;99.90;;;;;;5040826;28;20486;-70
2022/04/22 09:42:38;;;;;;;6.43;4.53;;;13.00;99.90;;;;;;5038555;28;21319;-71
2022/04/22 09:44:56;;;;;;;8.33;5.73;;;13.10;99.90;;;;;;5038596;28;20496;-71
2022/04/22 09:47:55;;;;;;;6.93;5.10;;;13.20;99.90;;;;;;5041177;28;20463;-70
2022/04/22 09:50:45;;;;;;;6.80;5.53;;;13.20;99.90;;;;;;5041732;28;20473;-71
2022/04/22 09:53:34;;;;;;;8.23;5.37;;;13.30;99.90;;;;;;5038238;28;20478;-70
2022/04/22 09:56:24;;;;;;;5.00;4.50;;;13.30;99.90;;;;;;5044456;28;20498;-69
2022/04/22 09:59:22;;;;;;;5.30;4.40;;;13.30;99.90;;;;;;5037256;28;20485;-70
2022/04/22 10:02:21;;;;;;;6.30;4.37;;;13.40;99.90;;;;;;5044197;28;20436;-70
2022/04/22 10:05:10;;;;;;;6.70;4.93;;;13.50;99.90;;;;;;5035090;28;20505;-70
2022/04/22 10:08:01;;;;;;;7.07;4.30;;;13.50;99.90;;;;;;5039375;28;20492;-71
2022/04/22 10:10:52;;;;;;;5.20;4.63;;;13.50;99.90;;;;;;5042477;28;20469;-70
2022/04/22 10:13:44;;;;;;;5.13;4.63;;;13.50;99.90;;;;;;5043915;28;20482;-71
2022/04/22 10:16:33;;;;;;;5.80;4.33;;;13.60;99.90;;;;;;5038820;28;20449;-70
2022/04/22 10:19:22;;;;;;;6.00;4.70;;;13.60;99.90;;;;;;5044239;28;20477;-71
2022/04/22 10:22:11;;;;;;;5.13;4.50;;;13.60;99.90;;;;;;5042795;28;20450;-69
2022/04/22 10:25:02;;;;;;;5.90;4.70;;;13.80;99.90;;;;;;5044110;28;20529;-70
2022/04/22 10:27:53;;;;;;;6.50;4.83;;;13.80;99.90;;;;;;5044387;28;20447;-71
2022/04/22 10:30:44;;;;;;;7.43;4.70;;;13.90;99.90;;;;;;5048006;28;20499;-70
2022/04/22 10:33:40;;;;;;;5.10;4.37;;;14.00;99.90;;;;;;5049820;28;20706;-71
2022/04/22 10:36:33;;;;;;;5.50;4.67;;;14.00;99.90;;;;;;5039956;28;21054;-70
2022/04/22 10:39:33;;;;;;;4.80;4.37;;;14.00;99.90;;;;;;5038042;28;20960;-70
2022/04/22 10:42:30;;;;;;;5.30;4.30;;;14.00;99.90;;;;;;5038236;28;21238;-69
2022/04/22 10:48:32;;;;;;;7.17;4.97;;;13.80;99.90;;;;;;4977390;28;20477;-68
2022/04/22 10:51:26;;;;;;;7.73;5.20;;;13.70;99.90;;;;;;4967828;28;20451;-70
2022/04/22 10:54:21;;;;;;;6.83;4.93;;;13.60;99.90;;;;;;4959914;28;20475;-69
2022/04/22 10:57:16;;;;;;;5.50;4.70;;;13.50;99.90;;;;;;4990839;28;20466;-70
2022/04/22 11:00:27;;;;;;;8.33;5.63;;;13.40;99.90;;;;;;5006167;28;20532;-70
2022/04/22 11:03:18;;;;;;;8.07;4.50;;;13.30;99.90;;;;;;5002652;28;20482;-69
2022/04/22 11:06:12;;;;;;;8.23;5.20;;;13.40;99.90;;;;;;5042356;28;21000;-68
2022/04/22 11:09:02;;;;;;;9.40;5.40;;;13.50;99.90;;;;;;5043503;28;20639;-69
2022/04/22 11:11:51;;;;;;;9.47;4.80;;;13.50;99.90;;;;;;5044754;28;20466;-70
2022/04/22 11:14:45;;;;;;;5.77;4.90;;;13.50;99.90;;;;;;5052464;28;20542;-69
2022/04/22 11:17:34;;;;;;;6.70;4.90;;;13.50;99.90;;;;;;5050545;28;21996;-70
2022/04/22 11:20:22;;;;;;;6.40;4.20;;;13.50;99.90;;;;;;5052635;28;20474;-70
2022/04/22 11:23:14;;;;;;;8.97;5.03;;;13.60;99.90;;;;;;5041868;28;20607;-70
2022/04/22 11:26:02;;;;;;;8.03;5.20;;;13.60;99.90;;;;;;5049675;28;20577;-70
2022/04/22 11:28:50;;;;;;;7.23;4.60;;;13.50;99.90;;;;;;5044636;28;20506;-69
2022/04/22 11:31:39;;;;;;;4.63;4.23;;;13.50;99.90;;;;;;5049726;28;20533;-70
2022/04/22 11:34:54;;;;;;;6.47;5.37;;;13.40;99.90;;;;;;5048026;28;20574;-70
2022/04/22 11:37:42;;;;;;;6.73;4.73;;;13.40;99.90;;;;;;5051545;28;21045;-70
2022/04/22 11:40:39;;;;;;;8.13;5.43;;;13.30;99.90;;;;;;5051901;28;20481;-71
2022/04/22 11:43:29;;;;;;;7.60;5.10;;;13.30;99.90;;;;;;5047081;28;20483;-71
2022/04/22 11:46:19;;;;;;;5.67;5.00;;;13.40;99.90;;;;;;5041630;28;20451;-75
2022/04/22 11:49:07;;;;;;;7.43;5.50;;;13.50;99.90;;;;;;5045976;28;20470;-73
2022/04/22 11:51:56;;;;;;;6.73;4.90;;;13.80;99.90;;;;;;5055097;28;20966;-71
2022/04/22 11:54:46;;;;;;;9.00;5.50;;;14.00;99.90;;;;;;5053210;28;20909;-74
2022/04/22 11:57:37;;;;;;;6.03;4.40;;;14.30;99.90;;;;;;5052010;28;20593;-75
2022/04/22 12:06:39;;;;;;;5.13;4.47;;;14.90;99.90;;;;;;5042731;28;20450;-75
2022/04/22 12:09:29;;;;;;;6.33;5.07;;;15.00;99.90;;;;;;5047747;28;21114;-76
2022/04/22 12:12:17;;;;;;;5.60;4.93;;;15.10;99.90;;;;;;5037474;28;20457;-76
2022/04/22 12:15:09;;;;;;;5.50;4.93;;;15.30;99.90;;;;;;5045244;28;20480;-76
2022/04/22 12:17:58;;;;;;;5.23;4.43;;;15.50;99.90;;;;;;5042340;28;20449;-76
2022/04/22 12:20:46;;;;;;;6.00;4.67;;;15.70;99.90;;;;;;5041886;28;20860;-75
2022/04/22 12:23:37;;;;;;;5.80;5.30;;;15.90;99.90;;;;;;5036819;28;20516;-70
2022/04/22 12:26:26;;;;;;;5.23;4.73;;;16.10;99.90;;;;;;5037297;28;20455;-71
2022/04/22 12:29:16;;;;;;;7.40;4.93;;;16.20;99.90;;;;;;5038794;28;20639;-71
2022/04/22 12:32:15;;;;;;;5.57;4.63;;;16.20;99.90;;;;;;5026620;28;20458;-71
2022/04/22 12:35:17;;;;;;;6.07;5.37;;;16.20;99.90;;;;;;5042056;28;20450;-70
2022/04/22 12:38:13;;;;;;;8.20;5.30;;;16.40;99.90;;;;;;5048254;28;20446;-70
2022/04/22 12:41:01;;;;;;;8.50;5.00;;;16.70;99.90;;;;;;5037967;28;20552;-71
2022/04/22 12:43:51;;;;;;;6.63;5.10;;;16.90;99.90;;;;;;5041696;28;20475;-72
2022/04/22 12:53:27;;;;;;;6.23;5.03;;;17.30;99.90;;;;;;5047105;28;20479;-71
2022/04/22 12:56:15;;;;;;;7.83;5.90;;;17.50;99.90;;;;;;5042183;28;20516;-71
2022/04/22 12:59:04;;;;;;;7.90;5.23;;;17.60;99.90;;;;;;5041457;28;20565;-71
2022/04/22 13:01:53;;;;;;;6.43;4.90;;;17.70;99.90;;;;;;5046645;28;20504;-71
2022/04/22 13:04:52;;;;;;;6.33;5.70;;;17.80;99.90;;;;;;5033782;28;20920;-71
2022/04/22 13:07:43;;;;;;;7.40;5.13;;;17.90;99.90;;;;;;5037044;28;20829;-71
2022/04/22 13:10:31;;;;;;;8.97;5.63;;;18.10;99.90;;;;;;5037452;28;20529;-72
2022/04/22 13:13:19;;;;;;;5.93;4.63;;;18.20;99.90;;;;;;5041337;28;21032;-72
2022/04/22 13:16:07;;;;;;;5.90;5.10;;;18.30;99.90;;;;;;5045294;28;20451;-72
2022/04/22 13:18:56;;;;;;;6.33;5.37;;;18.30;99.90;;;;;;5045318;28;21081;-71
2022/04/22 13:21:44;;;;;;;7.40;4.97;;;18.50;99.90;;;;;;5032364;28;20481;-72
2022/04/22 13:24:34;;;;;;;9.63;5.77;;;18.70;99.90;;;;;;5036161;28;21034;-71
2022/04/22 13:27:22;;;;;;;7.60;4.77;;;18.80;99.90;;;;;;5046424;28;20457;-71
2022/04/22 13:30:11;;;;;;;7.33;4.73;;;18.70;99.90;;;;;;5041816;28;20481;-71
2022/04/22 13:32:59;;;;;;;7.00;4.43;;;18.70;99.90;;;;;;5039887;28;20573;-71
2022/04/22 13:35:47;;;;;;;7.03;4.50;;;18.60;99.90;;;;;;5040917;28;20458;-70
2022/04/22 13:38:36;;;;;;;4.63;4.07;;;18.60;99.90;;;;;;5039676;28;20476;-73
2022/04/22 13:41:25;;;;;;;6.10;3.93;;;18.70;99.90;;;;;;5040796;28;20577;-73
2022/04/22 13:52:20;;;;;;;4.83;4.07;;;18.90;99.90;;;;;;5039748;28;21062;-71
2022/04/22 13:53:33;;;;;;;5.83;4.53;;;19.20;99.90;;;;;;5043640;28;20521;-72
2022/04/22 13:56:21;;;;;;;5.20;4.63;;;19.10;99.90;;;;;;5038909;28;21246;-72
2022/04/22 13:59:11;;;;;;;4.83;3.93;;;19.00;99.90;;;;;;5038401;28;20471;-71
2022/04/22 14:01:59;;;;;;;4.77;4.30;;;18.60;99.90;;;;;;5040619;28;20481;-71
2022/04/22 14:04:48;;;;;;;6.40;4.30;;;18.60;99.90;;;;;;5041465;28;20487;-70
2022/04/22 14:07:36;;;;;;;6.13;5.10;;;18.60;99.90;;;;;;5034501;28;20768;-70
2022/04/22 14:10:24;;;;;;;5.70;4.77;;;18.60;99.90;;;;;;5039022;28;20851;-71
2022/04/22 14:13:13;;;;;;;5.03;4.50;;;18.50;99.90;;;;;;5043891;28;21267;-71
2022/04/22 14:16:03;;;;;;;5.00;4.60;;;18.40;99.90;;;;;;5042565;28;20450;-72
2022/04/22 14:18:51;;;;;;;5.13;4.63;;;18.40;99.90;;;;;;5033590;28;20954;-75
2022/04/22 14:21:40;;;;;;;5.77;5.13;;;18.30;99.90;;;;;;5039988;28;20581;-76
2022/04/22 14:24:31;;;;;;;7.40;4.40;;;18.10;99.90;;;;;;5034892;28;20497;-68
2022/04/22 14:27:19;;;;;;;5.70;4.53;;;18.00;99.90;;;;;;5035667;28;20459;-68
2022/04/22 14:30:09;;;;;;;6.13;5.47;;;17.80;99.90;;;;;;5042162;28;20558;-71
2022/04/22 14:32:59;;;;;;;5.47;4.97;;;17.60;99.90;;;;;;5046325;28;21591;-71
2022/04/22 14:35:49;;;;;;;6.77;5.27;;;17.40;99.90;;;;;;5039773;28;20450;-71
2022/04/22 14:38:37;;;;;;;6.20;5.53;;;17.30;99.90;;;;;;5046277;28;20922;-71
2022/04/22 14:41:25;;;;;;;8.50;5.30;;;17.20;99.90;;;;;;5044268;28;20941;-71
2022/04/22 14:44:14;;;;;;;6.20;5.60;;;17.00;99.90;;;;;;5045318;28;20501;-71
2022/04/22 14:47:06;;;;;;;8.17;5.70;;;17.10;99.90;;;;;;5043687;28;20442;-71
2022/04/22 14:49:56;;;;;;;7.77;5.77;;;17.10;99.90;;;;;;5046824;28;20631;-71
2022/04/22 14:52:46;;;;;;;8.40;6.30;;;17.10;99.90;;;;;;5043175;28;21041;-71
2022/04/22 14:55:36;;;;;;;9.00;6.30;;;17.20;99.90;;;;;;5039103;28;20471;-71
2022/04/22 14:58:25;;;;;;;8.80;6.90;;;17.60;99.90;;;;;;5043234;28;20458;-71
2022/04/22 15:01:13;;;;;;;7.30;6.23;;;17.70;99.90;;;;;;5043307;28;20486;-71
2022/04/22 15:04:02;;;;;;;6.50;5.80;;;17.70;99.90;;;;;;5042694;28;20474;-71
2022/04/22 15:06:52;;;;;;;9.87;6.30;;;17.60;99.90;;;;;;5044248;28;20833;-69
2022/04/22 15:09:41;;;;;;;6.70;6.00;;;17.50;99.90;;;;;;5042332;28;20842;-69
2022/04/22 15:12:30;;;;;;;7.30;6.63;;;17.40;99.90;;;;;;5033774;28;20483;-68
2022/04/22 15:15:19;;;;;;;9.33;6.47;;;17.30;99.90;;;;;;5045718;28;20454;-71
2022/04/22 15:24:21;;;;;;;9.30;5.10;;;17.20;99.90;;;;;;5022509;28;21013;-70
2022/04/22 15:27:09;;;;;;;7.10;5.20;;;17.10;99.90;;;;;;5023677;28;21096;-70
2022/04/22 15:29:58;;;;;;;4.87;4.47;;;17.10;99.90;;;;;;5025204;28;20480;-69
2022/04/22 15:32:46;;;;;;;6.90;5.10;;;17.10;99.90;;;;;;5037533;28;21127;-69
2022/04/22 15:35:34;;;;;;;9.23;5.40;;;17.10;99.90;;;;;;5027844;28;21201;-70
2022/04/22 15:38:23;;;;;;;6.40;4.80;;;16.90;99.90;;;;;;5024160;28;21138;-70
2022/04/22 15:41:13;;;;;;;6.97;4.40;;;16.90;99.90;;;;;;5035931;28;20463;-69
2022/04/22 15:44:04;;;;;;;6.17;4.47;;;17.00;99.90;;;;;;5041008;28;20795;-69
2022/04/22 15:46:53;;;;;;;7.60;5.00;;;17.00;99.90;;;;;;5041595;28;20451;-71
2022/04/22 15:49:41;;;;;;;7.33;5.00;;;16.90;99.90;;;;;;5042056;28;20509;-69
2022/04/22 15:52:31;;;;;;;6.27;5.03;;;16.90;99.90;;;;;;5043024;28;20565;-69
2022/04/22 15:55:19;;;;;;;7.33;4.70;;;16.80;99.90;;;;;;5037596;28;20449;-70
2022/04/22 15:58:09;;;;;;;5.27;4.30;;;16.70;99.90;;;;;;5049649;28;21003;-69
2022/04/22 16:00:58;;;;;;;5.00;4.40;;;16.70;99.90;;;;;;5041957;28;20476;-70
2022/04/22 16:03:50;;;;;;;6.73;4.80;;;16.70;99.90;;;;;;5035885;28;20483;-70